Terminal Aerodrome Forecast
Issued by NWS

Home | Current Version | Previous Version | Text Only | Print | Product List | Glossary On
Versions: 1 2 3 4 5 6 7 8 9 10 11 12 13 14 15 16 17 18 19 20 21 22 23 24 25 26 27
000
FTUS41 KBUF 250539
TAFIAG
TAF
KIAG 250539Z 2506/2606 06006KT 6SM -SHRA OVC025
     FM250700 05008KT 3SM -RA BR OVC007
     FM251000 05010KT 2SM -RA BR OVC004
     FM251500 05012G18KT 3SM -RA BR OVC007
     FM252000 07014G20KT P6SM VCSH OVC007
     FM260000 08012KT P6SM OVC007=

USA.gov is the U.S. government's official web portal to all federal, state and local government web resources and services.